createdAt,value
2023-04-08T00:01:04.225Z,15.15
2023-04-08T00:03:31.440Z,15.07
2023-04-08T00:05:58.311Z,15.00
2023-04-08T00:08:24.952Z,14.02
2023-04-08T00:10:51.647Z,14.75
2023-04-08T00:13:18.343Z,14.15
2023-04-08T00:15:45.526Z,14.07
2023-04-08T00:18:13.761Z,14.52
2023-04-08T00:20:40.479Z,14.88
2023-04-08T00:23:07.079Z,14.27
2023-04-08T00:25:33.683Z,14.80
2023-04-08T00:28:00.411Z,14.38
2023-04-08T00:30:28.128Z,15.43
2023-04-08T00:32:55.310Z,14.68
2023-04-08T00:35:22.171Z,15.60
2023-04-08T00:37:49.769Z,13.75
2023-04-08T00:40:16.493Z,15.20
2023-04-08T00:42:43.172Z,14.25
2023-04-08T00:45:10.655Z,15.32
2023-04-08T00:47:38.427Z,15.50
2023-04-08T00:50:08.393Z,15.50
2023-04-08T00:52:35.257Z,16.02
2023-04-08T00:55:02.131Z,16.52
2023-04-08T00:57:29.152Z,15.23
2023-04-08T00:59:55.757Z,13.50
2023-04-08T01:02:31.067Z,13.70
2023-04-08T01:05:07.149Z,13.15
2023-04-08T01:07:36.394Z,13.57
2023-04-08T01:10:08.114Z,13.77
2023-04-08T01:12:45.524Z,14.48
2023-04-08T01:15:12.703Z,14.85
2023-04-08T01:17:40.509Z,15.38
2023-04-08T01:20:07.868Z,15.27
2023-04-08T01:22:43.852Z,15.60
2023-04-08T01:25:19.145Z,15.95
2023-04-08T01:27:47.215Z,17.38
2023-04-08T01:30:17.830Z,16.08
2023-04-08T01:32:46.659Z,16.48
2023-04-08T01:35:15.845Z,16.92
2023-04-08T01:37:43.368Z,15.45
2023-04-08T01:40:11.358Z,15.25
2023-04-08T01:42:38.783Z,16.67
2023-04-08T01:45:06.757Z,15.73
2023-04-08T01:47:34.453Z,16.00
2023-04-08T01:50:01.671Z,16.05
2023-04-08T01:52:29.137Z,17.35
2023-04-08T01:54:56.473Z,16.27
2023-04-08T01:57:25.069Z,15.00
2023-04-08T01:59:53.568Z,15.77
2023-04-08T02:02:22.306Z,15.63
2023-04-08T02:04:49.669Z,15.60
2023-04-08T02:07:17.236Z,15.95
2023-04-08T02:09:44.307Z,15.95
2023-04-08T02:12:11.589Z,16.55
2023-04-08T02:14:38.459Z,16.45
2023-04-08T02:17:12.622Z,17.83
2023-04-08T02:20:11.194Z,17.05
2023-04-08T02:22:54.216Z,18.25
2023-04-08T02:25:23.752Z,15.65
2023-04-08T02:27:52.425Z,16.83
2023-04-08T02:30:19.764Z,16.85
2023-04-08T02:32:48.180Z,16.20
2023-04-08T02:35:16.178Z,17.33
2023-04-08T02:37:44.770Z,18.17
2023-04-08T02:40:26.272Z,17.67
2023-04-08T02:42:53.753Z,17.92
2023-04-08T02:45:21.269Z,18.52
2023-04-08T02:47:50.474Z,18.30
2023-04-08T02:50:17.532Z,18.35
2023-04-08T02:52:44.952Z,18.02
2023-04-08T02:55:11.826Z,17.58
2023-04-08T02:57:42.647Z,18.52
2023-04-08T03:00:10.251Z,19.17
2023-04-08T03:02:37.270Z,18.05
2023-04-08T03:05:05.814Z,19.90
2023-04-08T03:07:33.190Z,17.48
2023-04-08T03:10:00.041Z,17.38
2023-04-08T03:12:30.026Z,18.40
2023-04-08T03:14:56.784Z,19.23
2023-04-08T03:17:24.853Z,19.23
2023-04-08T03:19:51.761Z,18.45
2023-04-08T03:22:19.494Z,18.08
2023-04-08T03:24:46.417Z,18.80
2023-04-08T03:27:14.187Z,18.63
2023-04-08T03:29:41.378Z,17.88
2023-04-08T03:32:08.706Z,19.45
2023-04-08T03:34:35.886Z,19.55
2023-04-08T03:37:03.009Z,18.55
2023-04-08T03:39:29.920Z,17.55
2023-04-08T03:41:57.241Z,17.23
2023-04-08T03:44:24.092Z,16.92
2023-04-08T03:46:50.976Z,17.25
2023-04-08T03:49:17.799Z,17.77
2023-04-08T03:51:44.634Z,19.50
2023-04-08T03:54:11.533Z,19.83
2023-04-08T03:56:38.479Z,19.38
2023-04-08T03:59:05.330Z,20.15
2023-04-08T04:01:32.518Z,20.48
2023-04-08T04:03:59.580Z,21.30
2023-04-08T04:06:27.783Z,20.80
2023-04-08T04:08:57.261Z,20.60
2023-04-08T04:11:24.093Z,20.50
2023-04-08T04:13:51.082Z,20.60
2023-04-08T04:16:18.113Z,19.15
2023-04-08T04:18:45.426Z,21.23
2023-04-08T04:21:12.502Z,19.65
2023-04-08T04:23:39.354Z,20.60
2023-04-08T04:26:10.300Z,21.17
2023-04-08T04:28:37.900Z,21.30
2023-04-08T04:31:05.469Z,22.15
2023-04-08T04:33:32.498Z,21.80
2023-04-08T04:35:59.285Z,20.30
2023-04-08T04:38:27.101Z,21.77
2023-04-08T04:40:54.047Z,22.48
2023-04-08T04:43:21.057Z,22.05
2023-04-08T04:45:47.900Z,22.13
2023-04-08T04:48:14.871Z,22.42
2023-04-08T04:50:42.042Z,22.50
2023-04-08T04:53:09.315Z,22.77
2023-04-08T04:55:38.093Z,22.65
2023-04-08T04:58:06.643Z,23.40
2023-04-08T05:00:33.394Z,22.42
2023-04-08T05:03:00.671Z,22.77
2023-04-08T05:05:27.609Z,22.27
2023-04-08T05:07:54.451Z,24.08
2023-04-08T05:10:21.336Z,23.88
2023-04-08T05:12:48.273Z,23.48
2023-04-08T05:15:15.122Z,22.45
2023-04-08T05:17:41.959Z,23.60
2023-04-08T05:20:09.188Z,22.42
2023-04-08T05:22:36.247Z,22.40
2023-04-08T05:25:03.292Z,23.15
2023-04-08T05:27:30.746Z,22.52
2023-04-08T05:29:57.754Z,23.83
2023-04-08T05:32:24.798Z,23.05
2023-04-08T05:34:51.644Z,22.10
2023-04-08T05:37:18.579Z,22.27
2023-04-08T05:39:46.285Z,23.70
2023-04-08T05:42:14.004Z,23.52
2023-04-08T05:44:43.905Z,22.58
2023-04-08T05:47:11.282Z,21.35
2023-04-08T05:49:38.232Z,22.52
2023-04-08T05:52:05.370Z,22.08
2023-04-08T05:54:33.219Z,23.55
2023-04-08T05:57:00.310Z,23.35
2023-04-08T05:59:27.317Z,23.73
2023-04-08T06:01:55.322Z,21.27
2023-04-08T06:04:22.549Z,22.85
2023-04-08T06:06:49.584Z,21.63
2023-04-08T06:09:16.366Z,21.73
2023-04-08T06:11:43.352Z,21.30
2023-04-08T06:14:10.135Z,22.00
2023-04-08T06:16:37.024Z,21.17
2023-04-08T06:19:04.283Z,21.33
2023-04-08T06:21:31.272Z,21.02
2023-04-08T06:23:58.294Z,21.40
2023-04-08T06:26:25.144Z,21.10
2023-04-08T06:28:52.370Z,20.30
2023-04-08T06:31:19.821Z,20.90
2023-04-08T06:33:46.865Z,20.30
2023-04-08T06:36:14.024Z,19.73
2023-04-08T06:38:40.952Z,20.95
2023-04-08T06:41:08.327Z,21.50
2023-04-08T06:43:36.647Z,22.08
2023-04-08T06:46:03.687Z,22.25
2023-04-08T06:48:31.099Z,21.23
2023-04-08T06:50:59.425Z,21.55
2023-04-08T06:53:27.242Z,21.85
2023-04-08T06:55:54.319Z,21.63
2023-04-08T06:58:21.411Z,21.27
2023-04-08T07:00:48.366Z,20.15
2023-04-08T07:03:15.446Z,20.92
2023-04-08T07:05:42.311Z,21.30
2023-04-08T07:08:09.452Z,22.60
2023-04-08T07:10:36.560Z,20.45
2023-04-08T07:13:03.554Z,20.90
2023-04-08T07:15:30.908Z,22.15
2023-04-08T07:17:58.888Z,20.00
2023-04-08T07:20:26.370Z,21.13
2023-04-08T07:22:53.300Z,20.48
2023-04-08T07:25:20.165Z,21.42
2023-04-08T07:27:47.071Z,21.52
2023-04-08T07:30:14.134Z,20.60
2023-04-08T07:32:41.286Z,19.00
2023-04-08T07:35:08.393Z,20.55
2023-04-08T07:37:35.786Z,22.98
2023-04-08T07:40:02.601Z,18.63
2023-04-08T07:42:29.470Z,21.60
2023-04-08T07:44:56.263Z,18.90
2023-04-08T07:47:23.316Z,18.75
2023-04-08T07:49:50.394Z,17.85
2023-04-08T07:52:17.896Z,18.10
2023-04-08T07:54:45.034Z,17.52
2023-04-08T07:57:12.387Z,18.20
2023-04-08T07:59:39.471Z,18.35
2023-04-08T08:02:06.932Z,19.13
2023-04-08T08:04:34.355Z,18.23
2023-04-08T08:07:01.475Z,18.40
2023-04-08T08:09:29.660Z,17.33
2023-04-08T08:11:57.400Z,17.23
2023-04-08T08:14:25.369Z,17.80
2023-04-08T08:16:52.650Z,18.05
2023-04-08T08:19:21.233Z,19.13
2023-04-08T08:21:48.361Z,16.88
2023-04-08T08:24:16.616Z,17.83
2023-04-08T08:26:45.589Z,16.58
2023-04-08T08:29:12.471Z,17.23
2023-04-08T08:31:39.534Z,17.23
2023-04-08T08:34:06.581Z,17.90
2023-04-08T08:36:34.663Z,18.10
2023-04-08T08:39:02.024Z,17.85
2023-04-08T08:41:34.700Z,17.35
2023-04-08T08:44:03.874Z,17.08
2023-04-08T08:46:31.361Z,18.33
2023-04-08T08:48:58.970Z,18.85
2023-04-08T08:51:28.035Z,18.38
2023-04-08T08:53:55.014Z,18.00
2023-04-08T08:56:22.186Z,19.80
2023-04-08T08:58:51.749Z,17.13
2023-04-08T09:01:36.596Z,17.77
2023-04-08T09:04:12.815Z,20.58
2023-04-08T09:06:40.620Z,20.02
2023-04-08T09:09:10.484Z,18.17
2023-04-08T09:11:39.915Z,16.50
2023-04-08T09:14:24.562Z,20.75
2023-04-08T09:16:52.428Z,18.00
2023-04-08T09:19:19.540Z,17.83
2023-04-08T09:21:47.628Z,18.73
2023-04-08T09:24:31.204Z,17.77
2023-04-08T09:26:58.038Z,17.90
2023-04-08T09:29:32.464Z,17.65
2023-04-08T09:32:01.967Z,16.95
2023-04-08T09:34:30.888Z,16.98
2023-04-08T09:36:58.262Z,17.83
2023-04-08T09:39:25.429Z,17.63
2023-04-08T09:41:52.810Z,17.98
2023-04-08T09:44:21.664Z,17.63
2023-04-08T09:46:52.809Z,17.08
2023-04-08T09:49:26.861Z,17.40
2023-04-08T09:51:53.719Z,16.85
2023-04-08T09:54:23.054Z,17.00
2023-04-08T09:56:57.238Z,17.65
2023-04-08T09:59:27.349Z,15.98
2023-04-08T10:01:54.934Z,16.90
2023-04-08T10:04:23.711Z,16.42
2023-04-08T10:06:57.745Z,17.83
2023-04-08T10:09:24.883Z,17.33
2023-04-08T10:11:52.303Z,16.75
2023-04-08T10:14:22.218Z,16.73
2023-04-08T10:16:49.230Z,17.40
2023-04-08T10:19:41.771Z,16.65
2023-04-08T10:22:31.622Z,17.92
2023-04-08T10:25:17.117Z,15.45
2023-04-08T10:27:45.115Z,23.00
2023-04-08T10:30:27.279Z,17.08
2023-04-08T10:33:20.456Z,15.95
2023-04-08T10:35:49.108Z,15.48
2023-04-08T10:38:16.892Z,15.48
2023-04-08T10:40:44.545Z,15.32
2023-04-08T10:43:12.645Z,16.27
2023-04-08T10:45:40.826Z,15.23
2023-04-08T10:48:13.749Z,16.25
2023-04-08T10:50:41.306Z,16.55
2023-04-08T10:53:08.803Z,16.20
2023-04-08T10:55:35.655Z,15.57
2023-04-08T10:58:08.708Z,16.48
2023-04-08T11:00:36.767Z,15.65
2023-04-08T11:03:04.825Z,17.20
2023-04-08T11:05:32.759Z,16.33
2023-04-08T11:08:00.217Z,16.30
2023-04-08T11:10:28.798Z,17.17
2023-04-08T11:12:56.101Z,16.23
2023-04-08T11:15:24.724Z,16.23
2023-04-08T11:17:52.105Z,17.00
2023-04-08T11:20:19.222Z,16.58
2023-04-08T11:22:47.419Z,15.35
2023-04-08T11:25:14.709Z,15.45
2023-04-08T11:27:41.726Z,15.50
2023-04-08T11:30:09.481Z,16.08
2023-04-08T11:32:37.222Z,16.95
2023-04-08T11:35:07.435Z,15.57
2023-04-08T11:37:39.297Z,15.10
2023-04-08T11:40:10.375Z,15.85
2023-04-08T11:42:38.030Z,15.82
2023-04-08T11:45:12.641Z,15.13
2023-04-08T11:47:39.801Z,16.13
2023-04-08T11:50:07.315Z,15.65
2023-04-08T11:52:48.434Z,16.52
2023-04-08T11:55:32.404Z,15.05
2023-04-08T11:58:04.442Z,16.02
2023-04-08T12:00:31.482Z,16.92
2023-04-08T12:02:58.480Z,17.60
2023-04-08T12:05:25.492Z,17.50
2023-04-08T12:07:52.655Z,16.70
2023-04-08T12:10:19.284Z,18.90
2023-04-08T12:12:46.319Z,17.65
2023-04-08T12:15:13.210Z,17.60
2023-04-08T12:17:40.717Z,16.55
2023-04-08T12:20:08.114Z,16.92
2023-04-08T12:22:35.349Z,16.23
2023-04-08T12:25:03.891Z,16.23
2023-04-08T12:27:33.511Z,15.20
2023-04-08T12:30:00.983Z,15.30
2023-04-08T12:32:28.040Z,15.73
2023-04-08T12:34:54.994Z,15.93
2023-04-08T12:37:21.781Z,15.13
2023-04-08T12:39:48.612Z,16.27
2023-04-08T12:42:15.553Z,14.57
2023-04-08T12:44:42.277Z,15.73
2023-04-08T12:47:09.306Z,13.98
2023-04-08T12:49:48.922Z,14.45
2023-04-08T12:54:43.575Z,13.10
2023-04-08T12:57:10.552Z,12.57
2023-04-08T12:59:38.054Z,11.07
2023-04-08T13:02:04.953Z,10.90
2023-04-08T13:04:32.400Z,10.65
2023-04-08T13:06:59.772Z,10.20
2023-04-08T13:09:26.725Z,10.45
2023-04-08T13:11:53.810Z,9.95
2023-04-08T13:14:20.531Z,10.68
2023-04-08T13:16:47.937Z,10.45
2023-04-08T13:19:15.135Z,10.10
2023-04-08T13:21:42.454Z,10.70
2023-04-08T13:24:10.269Z,9.23
2023-04-08T13:26:37.196Z,9.35
2023-04-08T13:29:04.589Z,9.15
2023-04-08T13:31:31.821Z,8.23
2023-04-08T13:33:58.934Z,7.53
2023-04-08T13:36:26.900Z,7.43
2023-04-08T13:38:53.964Z,7.53
2023-04-08T13:41:25.158Z,5.18
2023-04-08T13:43:51.994Z,5.93
2023-04-08T13:46:19.191Z,6.93
2023-04-08T13:48:46.222Z,7.00
2023-04-08T13:51:13.126Z,5.85
2023-04-08T13:53:39.983Z,7.18
2023-04-08T13:56:07.132Z,7.95
2023-04-08T13:58:34.181Z,7.68
2023-04-08T14:01:01.178Z,7.30
2023-04-08T14:03:28.052Z,7.55
2023-04-08T14:05:55.156Z,7.63
2023-04-08T14:08:25.555Z,8.63
2023-04-08T14:10:53.447Z,9.38
2023-04-08T14:13:20.943Z,8.85
2023-04-08T14:15:48.699Z,10.20
2023-04-08T14:18:18.028Z,8.80
2023-04-08T14:20:44.886Z,9.40
2023-04-08T14:23:13.497Z,8.82
2023-04-08T14:25:40.918Z,10.30
2023-04-08T14:28:08.183Z,10.05
2023-04-08T14:30:36.095Z,10.15
2023-04-08T14:33:05.190Z,10.38
2023-04-08T14:35:32.338Z,10.80
2023-04-08T14:37:59.887Z,10.57
2023-04-08T14:40:26.941Z,9.95
2023-04-08T14:42:53.843Z,10.30
2023-04-08T14:45:20.808Z,10.70
2023-04-08T14:47:47.757Z,9.70
2023-04-08T14:50:14.925Z,9.68
2023-04-08T14:52:41.854Z,9.93
2023-04-08T14:55:08.925Z,9.73
2023-04-08T14:57:36.560Z,10.20
2023-04-08T15:00:03.688Z,9.75
2023-04-08T15:02:31.047Z,10.25
2023-04-08T15:04:58.112Z,9.65
2023-04-08T15:07:25.024Z,9.68
2023-04-08T15:09:52.030Z,9.30
2023-04-08T15:12:18.861Z,9.23
2023-04-08T15:14:46.012Z,10.32
2023-04-08T15:17:12.922Z,9.48
2023-04-08T15:19:39.877Z,11.32
2023-04-08T15:22:06.780Z,10.68
2023-04-08T15:24:33.617Z,11.35
2023-04-08T15:27:00.868Z,10.45
2023-04-08T15:29:28.108Z,10.77
2023-04-08T15:31:54.947Z,11.05
2023-04-08T15:34:22.335Z,10.95
2023-04-08T15:36:49.076Z,11.10
2023-04-08T15:39:16.102Z,12.55
2023-04-08T15:41:42.995Z,11.85
2023-04-08T15:44:10.006Z,11.20
2023-04-08T15:46:37.759Z,11.73
2023-04-08T15:49:05.072Z,11.45
2023-04-08T15:51:32.324Z,11.07
2023-04-08T15:54:00.026Z,11.45
2023-04-08T15:56:29.333Z,10.63
2023-04-08T15:58:59.045Z,10.90
2023-04-08T16:01:26.268Z,10.63
2023-04-08T16:03:53.382Z,10.57
2023-04-08T16:06:20.496Z,9.60
2023-04-08T16:08:48.156Z,9.45
2023-04-08T16:11:15.487Z,10.15
2023-04-08T16:13:42.804Z,10.10
2023-04-08T16:16:09.927Z,9.85
2023-04-08T16:18:37.015Z,9.80
2023-04-08T16:21:05.787Z,9.63
2023-04-08T16:23:34.084Z,8.95
2023-04-08T16:26:01.738Z,10.43
2023-04-08T16:28:28.886Z,10.05
2023-04-08T16:30:56.071Z,9.90
2023-04-08T16:33:29.608Z,9.80
2023-04-08T16:36:00.821Z,10.50
2023-04-08T16:38:27.754Z,8.90
2023-04-08T16:40:57.658Z,9.35
2023-04-08T16:43:25.664Z,8.80
2023-04-08T16:45:53.407Z,9.20
2023-04-08T16:48:20.467Z,8.55
2023-04-08T16:50:47.433Z,8.63
2023-04-08T16:53:14.268Z,8.55
2023-04-08T16:55:41.062Z,8.82
2023-04-08T16:58:07.954Z,8.93
2023-04-08T17:00:35.011Z,8.18
2023-04-08T17:03:02.466Z,7.43
2023-04-08T17:05:29.777Z,7.80
2023-04-08T17:07:56.747Z,7.63
2023-04-08T17:10:23.879Z,7.05
2023-04-08T17:12:50.821Z,6.90
2023-04-08T17:15:17.979Z,6.47
2023-04-08T17:17:45.354Z,7.03
2023-04-08T17:20:12.361Z,6.53
2023-04-08T17:22:39.595Z,6.45
2023-04-08T17:25:06.957Z,6.60
2023-04-08T17:27:33.884Z,6.93
2023-04-08T17:30:00.982Z,7.25
2023-04-08T17:32:28.011Z,7.03
2023-04-08T17:34:54.947Z,6.63
2023-04-08T17:37:22.042Z,7.00
2023-04-08T17:39:48.875Z,7.78
2023-04-08T17:42:16.906Z,6.78
2023-04-08T17:44:44.784Z,7.45
2023-04-08T17:47:12.165Z,6.97
2023-04-08T17:49:39.255Z,8.00
2023-04-08T17:52:06.334Z,7.97
2023-04-08T17:54:34.628Z,7.80
2023-04-08T17:57:01.700Z,7.32
2023-04-08T17:59:28.474Z,7.18
2023-04-08T18:01:55.627Z,7.22
2023-04-08T18:04:22.872Z,7.47
2023-04-08T18:06:49.992Z,7.20
2023-04-08T18:09:16.937Z,7.18
2023-04-08T18:11:43.700Z,7.03
2023-04-08T18:14:12.618Z,6.97
2023-04-08T18:16:39.896Z,6.43
2023-04-08T18:19:06.882Z,7.13
2023-04-08T18:21:34.086Z,6.65
2023-04-08T18:24:01.219Z,7.03
2023-04-08T18:26:28.568Z,7.13
2023-04-08T18:28:55.472Z,7.25
2023-04-08T18:31:24.250Z,7.28
2023-04-08T18:33:51.643Z,7.55
2023-04-08T18:36:19.081Z,7.38
2023-04-08T18:38:46.108Z,7.53
2023-04-08T18:41:13.459Z,7.15
2023-04-08T18:43:40.765Z,7.22
2023-04-08T18:46:08.085Z,7.63
2023-04-08T18:48:35.042Z,7.63
2023-04-08T18:51:02.043Z,7.78
2023-04-08T18:53:29.135Z,7.82
2023-04-08T18:55:56.267Z,8.00
2023-04-08T18:58:24.127Z,7.93
2023-04-08T19:00:51.162Z,8.25
2023-04-08T19:03:18.164Z,7.75
2023-04-08T19:05:45.178Z,8.45
2023-04-08T19:08:11.995Z,8.13
2023-04-08T19:10:39.571Z,8.10
2023-04-08T19:13:06.440Z,8.10
2023-04-08T19:15:33.457Z,8.27
2023-04-08T19:18:00.648Z,8.27
2023-04-08T19:20:28.466Z,7.55
2023-04-08T19:22:55.919Z,8.43
2023-04-08T19:25:22.852Z,7.78
2023-04-08T19:27:49.991Z,8.45
2023-04-08T19:30:16.953Z,7.72
2023-04-08T19:32:44.306Z,8.25
2023-04-08T19:35:12.699Z,8.07
2023-04-08T19:37:39.602Z,8.82
2023-04-08T19:40:09.988Z,7.97
2023-04-08T19:45:05.330Z,8.32
2023-04-08T19:47:32.179Z,8.25
2023-04-08T19:49:59.793Z,8.88
2023-04-08T19:52:26.728Z,8.27
2023-04-08T19:54:53.771Z,8.07
2023-04-08T19:57:20.753Z,7.78
2023-04-08T19:59:50.283Z,7.82
2023-04-08T20:02:17.529Z,8.07
2023-04-08T20:04:45.598Z,8.65
2023-04-08T20:07:13.418Z,7.75
2023-04-08T20:09:40.393Z,7.50
2023-04-08T20:12:07.361Z,7.63
2023-04-08T20:14:38.698Z,7.40
2023-04-08T20:17:05.772Z,7.63
2023-04-08T20:19:32.645Z,7.38
2023-04-08T20:21:59.451Z,8.07
2023-04-08T20:24:26.384Z,7.15
2023-04-08T20:26:53.532Z,7.40
2023-04-08T20:29:22.755Z,7.70
2023-04-08T20:31:49.711Z,8.10
2023-04-08T20:34:16.575Z,8.82
2023-04-08T20:36:43.589Z,8.90
2023-04-08T20:39:10.957Z,9.15
2023-04-08T20:41:38.064Z,9.13
2023-04-08T20:44:10.540Z,8.70
2023-04-08T20:46:37.915Z,9.68
2023-04-08T20:49:05.457Z,9.05
2023-04-08T20:51:35.079Z,9.35
2023-04-08T20:54:02.383Z,9.38
2023-04-08T20:56:29.386Z,10.10
2023-04-08T20:58:58.219Z,10.25
2023-04-08T21:01:26.488Z,10.38
2023-04-08T21:03:54.963Z,10.85
2023-04-08T21:06:22.240Z,10.95
2023-04-08T21:08:50.136Z,11.10
2023-04-08T21:11:17.531Z,10.98
2023-04-08T21:13:46.024Z,10.98
2023-04-08T21:16:15.537Z,11.10
2023-04-08T21:18:42.605Z,11.30
2023-04-08T21:21:11.213Z,11.05
2023-04-08T21:23:38.094Z,10.18
2023-04-08T21:26:11.879Z,10.45
2023-04-08T21:28:40.126Z,11.70
2023-04-08T21:31:11.075Z,11.30
2023-04-08T21:33:38.219Z,11.68
2023-04-08T21:36:07.233Z,12.15
2023-04-08T21:38:34.644Z,12.95
2023-04-08T21:41:01.469Z,12.63
2023-04-08T21:43:28.493Z,12.57
2023-04-08T21:45:55.389Z,11.43
2023-04-08T21:48:23.445Z,11.48
2023-04-08T21:50:50.444Z,12.65
2023-04-08T21:53:17.424Z,13.15
2023-04-08T21:55:44.514Z,13.10
2023-04-08T21:58:12.306Z,12.02
2023-04-08T22:00:39.296Z,12.73
2023-04-08T22:03:09.620Z,11.63
2023-04-08T22:05:36.932Z,12.52
2023-04-08T22:08:03.753Z,11.55
2023-04-08T22:10:30.624Z,11.68
2023-04-08T22:12:57.543Z,11.40
2023-04-08T22:15:24.725Z,11.60
2023-04-08T22:17:51.783Z,12.85
2023-04-08T22:20:19.066Z,13.60
2023-04-08T22:22:45.931Z,14.30
2023-04-08T22:25:12.779Z,13.77
2023-04-08T22:27:39.667Z,14.60
2023-04-08T22:30:07.263Z,12.23
2023-04-08T22:32:34.069Z,11.35
2023-04-08T22:35:00.962Z,10.85
2023-04-08T22:37:27.951Z,10.88
2023-04-08T22:39:54.852Z,13.23
2023-04-08T22:42:21.703Z,13.82
2023-04-08T22:44:49.766Z,15.07
2023-04-08T22:47:18.108Z,15.25
2023-04-08T22:49:45.607Z,16.33
2023-04-08T22:52:12.967Z,16.05
2023-04-08T22:54:40.261Z,17.45
2023-04-08T22:57:07.309Z,17.42
2023-04-08T22:59:34.330Z,17.52
2023-04-08T23:02:01.440Z,17.48
2023-04-08T23:04:28.401Z,15.77
2023-04-08T23:06:55.497Z,16.17
2023-04-08T23:09:24.494Z,14.70
2023-04-08T23:11:51.602Z,14.57
2023-04-08T23:14:19.528Z,14.68
2023-04-08T23:16:46.469Z,11.18
2023-04-08T23:19:13.504Z,13.65
2023-04-08T23:21:40.845Z,14.57
2023-04-08T23:24:08.095Z,15.38
2023-04-08T23:26:34.959Z,15.63
2023-04-08T23:29:02.067Z,15.43
2023-04-08T23:31:28.933Z,15.77
2023-04-08T23:33:55.814Z,14.98
2023-04-08T23:36:22.717Z,13.98
2023-04-08T23:38:50.551Z,13.13
2023-04-08T23:41:17.715Z,12.73
2023-04-08T23:43:46.068Z,13.82
2023-04-08T23:46:13.110Z,14.38
2023-04-08T23:48:40.323Z,15.88
2023-04-08T23:51:07.246Z,15.85
2023-04-08T23:53:34.287Z,16.23
2023-04-08T23:56:08.605Z,16.30
2023-04-08T23:58:35.871Z,15.80
